createdAt,value
2022-12-20T00:01:25.672Z,5.47
2022-12-20T00:03:54.571Z,5.33
2022-12-20T00:06:21.958Z,6.17
2022-12-20T00:08:54.397Z,5.90
2022-12-20T00:11:21.043Z,5.63
2022-12-20T00:13:47.931Z,5.50
2022-12-20T00:16:22.890Z,5.20
2022-12-20T00:18:58.300Z,4.47
2022-12-20T00:21:26.217Z,5.33
2022-12-20T00:23:53.635Z,5.20
2022-12-20T00:26:23.521Z,5.53
2022-12-20T00:28:52.678Z,5.00
2022-12-20T00:31:21.213Z,5.37
2022-12-20T00:33:50.313Z,5.07
2022-12-20T00:36:18.122Z,4.40
2022-12-20T00:38:46.183Z,5.77
2022-12-20T00:41:19.098Z,5.87
2022-12-20T00:43:45.960Z,3.97
2022-12-20T00:46:14.392Z,4.80
2022-12-20T00:48:41.134Z,5.23
2022-12-20T00:51:10.905Z,6.97
2022-12-20T00:53:37.626Z,5.50
2022-12-20T00:56:05.352Z,4.70
2022-12-20T00:58:33.806Z,6.23
2022-12-20T01:01:00.540Z,6.80
2022-12-20T01:03:27.386Z,4.97
2022-12-20T01:06:00.128Z,6.40
2022-12-20T01:08:29.379Z,5.20
2022-12-20T01:11:16.747Z,5.20
2022-12-20T01:13:46.162Z,5.33
2022-12-20T01:16:23.017Z,5.57
2022-12-20T01:18:50.471Z,5.80
2022-12-20T01:21:19.344Z,5.53
2022-12-20T01:23:46.230Z,5.53
2022-12-20T01:26:15.914Z,5.00
2022-12-20T01:28:45.902Z,6.33
2022-12-20T01:31:16.339Z,4.70
2022-12-20T01:33:44.320Z,6.00
2022-12-20T01:36:16.726Z,5.07
2022-12-20T01:38:43.553Z,4.37
2022-12-20T01:41:18.207Z,5.20
2022-12-20T01:44:06.732Z,5.63
2022-12-20T01:46:36.404Z,5.33
2022-12-20T01:49:11.572Z,5.40
2022-12-20T01:51:44.727Z,4.20
2022-12-20T01:54:20.200Z,4.93
2022-12-20T01:56:52.350Z,4.97
2022-12-20T01:59:19.930Z,5.57
2022-12-20T02:01:46.724Z,5.20
2022-12-20T02:04:13.641Z,4.83
2022-12-20T02:06:40.352Z,5.03
2022-12-20T02:09:08.723Z,4.30
2022-12-20T02:12:15.908Z,4.90
2022-12-20T02:15:06.928Z,4.43
2022-12-20T02:18:18.088Z,5.70
2022-12-20T02:21:02.759Z,5.00
2022-12-20T02:24:07.012Z,5.20
2022-12-20T02:27:10.930Z,5.20
2022-12-20T02:33:28.438Z,4.17
2022-12-20T02:35:55.393Z,4.60
2022-12-20T02:38:34.563Z,5.30
2022-12-20T02:41:09.949Z,5.60
2022-12-20T02:43:58.112Z,5.43
2022-12-20T02:46:26.576Z,5.43
2022-12-20T02:48:58.185Z,5.70
2022-12-20T02:51:28.577Z,4.70
2022-12-20T02:53:55.511Z,5.30
2022-12-20T02:56:33.469Z,5.50
2022-12-20T02:59:17.235Z,3.90
2022-12-20T03:01:50.883Z,6.10
2022-12-20T03:04:20.018Z,4.10
2022-12-20T03:07:05.591Z,4.47
2022-12-20T03:09:34.309Z,4.47
2022-12-20T03:12:01.022Z,4.03
2022-12-20T03:14:33.711Z,4.00
2022-12-20T03:17:00.559Z,6.70
2022-12-20T03:19:27.326Z,4.40
2022-12-20T03:21:54.037Z,3.90
2022-12-20T03:24:20.707Z,4.50
2022-12-20T03:26:47.765Z,4.23
2022-12-20T03:29:14.498Z,4.50
2022-12-20T03:31:41.224Z,3.57
2022-12-20T03:34:07.864Z,4.30
2022-12-20T03:36:34.744Z,3.60
2022-12-20T03:39:01.669Z,4.97
2022-12-20T03:41:28.680Z,3.93
2022-12-20T03:43:55.323Z,3.60
2022-12-20T03:46:22.215Z,4.10
2022-12-20T03:48:48.887Z,3.10
2022-12-20T03:51:15.582Z,3.70
2022-12-20T03:53:42.169Z,3.77
2022-12-20T03:56:09.866Z,3.97
2022-12-20T03:58:36.448Z,3.67
2022-12-20T04:01:15.872Z,4.13
2022-12-20T04:03:42.611Z,3.17
2022-12-20T04:06:09.285Z,3.60
2022-12-20T04:08:35.906Z,4.23
2022-12-20T04:11:17.551Z,4.30
2022-12-20T04:13:45.758Z,3.67
2022-12-20T04:16:14.226Z,4.40
2022-12-20T04:18:40.902Z,3.90
2022-12-20T04:21:08.380Z,3.80
2022-12-20T04:23:36.531Z,2.80
2022-12-20T04:26:04.806Z,4.27
2022-12-20T04:28:31.807Z,3.50
2022-12-20T04:30:58.805Z,3.57
2022-12-20T04:33:26.860Z,3.77
2022-12-20T04:35:53.907Z,3.30
2022-12-20T04:38:21.717Z,3.00
2022-12-20T04:40:53.579Z,3.60
2022-12-20T04:43:21.726Z,2.83
2022-12-20T04:45:49.763Z,3.27
2022-12-20T04:48:54.767Z,3.70
2022-12-20T04:51:03.664Z,3.67
2022-12-20T04:53:48.795Z,4.00
2022-12-20T04:56:19.612Z,3.80
2022-12-20T04:58:47.596Z,3.40
2022-12-20T05:01:14.392Z,3.63
2022-12-20T05:03:41.719Z,2.70
2022-12-20T05:06:08.866Z,2.60
2022-12-20T05:08:35.901Z,3.83
2022-12-20T05:11:02.801Z,2.80
2022-12-20T05:13:29.518Z,4.30
2022-12-20T05:15:57.084Z,3.57
2022-12-20T05:18:24.363Z,3.73
2022-12-20T05:21:11.337Z,3.73
2022-12-20T05:23:56.665Z,3.33
2022-12-20T05:26:24.652Z,3.47
2022-12-20T05:28:58.832Z,4.10
2022-12-20T05:31:25.677Z,3.80
2022-12-20T05:33:52.470Z,3.00
2022-12-20T05:36:20.233Z,3.27
2022-12-20T05:38:47.015Z,3.50
2022-12-20T05:41:13.787Z,3.77
2022-12-20T05:43:40.427Z,4.13
2022-12-20T05:46:07.228Z,3.60
2022-12-20T05:48:34.162Z,4.03
2022-12-20T05:51:01.356Z,4.00
2022-12-20T05:53:28.578Z,3.77
2022-12-20T05:55:55.356Z,3.30
2022-12-20T05:58:22.070Z,4.10
2022-12-20T06:00:49.137Z,3.53
2022-12-20T06:03:17.028Z,5.40
2022-12-20T06:05:44.999Z,3.00
2022-12-20T06:08:12.482Z,4.20
2022-12-20T06:10:41.490Z,3.70
2022-12-20T06:13:09.577Z,3.70
2022-12-20T06:15:37.106Z,3.90
2022-12-20T06:18:04.206Z,4.30
2022-12-20T06:20:31.209Z,5.10
2022-12-20T06:22:58.083Z,3.67
2022-12-20T06:25:24.992Z,4.40
2022-12-20T06:27:51.661Z,3.87
2022-12-20T06:30:19.299Z,5.33
2022-12-20T06:32:46.048Z,5.93
2022-12-20T06:35:12.724Z,5.00
2022-12-20T06:37:40.602Z,5.00
2022-12-20T06:40:12.180Z,3.83
2022-12-20T06:42:38.809Z,4.70
2022-12-20T06:45:06.333Z,4.50
2022-12-20T06:47:33.046Z,4.30
2022-12-20T06:49:59.710Z,4.77
2022-12-20T06:52:26.444Z,4.47
2022-12-20T06:54:53.053Z,4.10
2022-12-20T06:57:19.923Z,5.03
2022-12-20T06:59:46.566Z,3.90
2022-12-20T07:02:13.876Z,3.90
2022-12-20T07:04:40.956Z,4.13
2022-12-20T07:07:07.811Z,4.97
2022-12-20T07:09:34.708Z,4.83
2022-12-20T07:12:01.464Z,4.33
2022-12-20T07:14:28.222Z,4.90
2022-12-20T07:16:54.999Z,4.80
2022-12-20T07:19:22.140Z,4.00
2022-12-20T07:21:48.985Z,4.30
2022-12-20T07:24:15.916Z,3.90
2022-12-20T07:26:45.546Z,5.77
2022-12-20T07:29:15.648Z,3.40
2022-12-20T07:31:42.771Z,4.70
2022-12-20T07:34:10.950Z,5.10
2022-12-20T07:36:37.819Z,5.07
2022-12-20T07:39:04.501Z,4.47
2022-12-20T07:41:31.146Z,5.37
2022-12-20T07:43:59.245Z,4.60
2022-12-20T07:46:26.135Z,4.60
2022-12-20T07:48:53.107Z,5.30
2022-12-20T07:51:27.715Z,4.97
2022-12-20T07:54:27.087Z,4.70
2022-12-20T07:57:04.338Z,5.37
2022-12-20T07:59:41.332Z,7.13
2022-12-20T08:02:17.556Z,4.80
2022-12-20T08:04:44.770Z,6.20
2022-12-20T08:07:11.977Z,5.83
2022-12-20T08:09:41.883Z,5.50
2022-12-20T08:12:09.996Z,5.80
2022-12-20T08:14:37.699Z,6.23
2022-12-20T08:17:04.440Z,6.10
2022-12-20T08:19:32.925Z,6.37
2022-12-20T08:21:59.803Z,5.90
2022-12-20T08:24:26.484Z,4.30
2022-12-20T08:26:53.245Z,6.10
2022-12-20T08:29:19.878Z,5.17
2022-12-20T08:31:50.437Z,5.07
2022-12-20T08:34:17.564Z,5.37
2022-12-20T08:36:44.292Z,6.63
2022-12-20T08:39:11.470Z,5.73
2022-12-20T08:41:38.275Z,5.10
2022-12-20T08:44:08.090Z,5.20
2022-12-20T08:46:34.758Z,5.70
2022-12-20T08:49:01.450Z,4.90
2022-12-20T08:51:29.066Z,4.83
2022-12-20T08:53:55.899Z,5.80
2022-12-20T08:56:22.587Z,5.63
2022-12-20T08:58:49.342Z,5.50
2022-12-20T09:01:18.525Z,5.30
2022-12-20T09:03:45.866Z,4.77
2022-12-20T09:06:19.755Z,5.00
2022-12-20T09:08:47.896Z,4.73
2022-12-20T09:11:20.385Z,4.43
2022-12-20T09:13:49.690Z,5.40
2022-12-20T09:16:19.003Z,4.67
2022-12-20T09:18:49.996Z,5.00
2022-12-20T09:21:16.668Z,4.70
2022-12-20T09:23:43.436Z,4.73
2022-12-20T09:26:15.282Z,3.90
2022-12-20T09:28:43.207Z,4.90
2022-12-20T09:31:12.922Z,4.63
2022-12-20T09:33:39.670Z,5.30
2022-12-20T09:36:07.143Z,4.87
2022-12-20T09:38:33.939Z,3.93
2022-12-20T09:41:06.644Z,4.70
2022-12-20T09:43:34.606Z,4.97
2022-12-20T09:46:03.019Z,4.93
2022-12-20T09:48:33.844Z,4.43
2022-12-20T09:51:37.215Z,4.23
2022-12-20T09:54:32.984Z,4.53
2022-12-20T09:57:14.516Z,5.93
2022-12-20T09:59:49.261Z,5.40
2022-12-20T10:05:25.371Z,4.57
2022-12-20T10:08:06.006Z,4.87
2022-12-20T10:10:48.258Z,5.13
2022-12-20T10:13:30.276Z,4.50
2022-12-20T10:16:27.530Z,4.77
2022-12-20T10:19:04.245Z,5.00
2022-12-20T10:22:01.982Z,5.37
2022-12-20T10:24:32.056Z,5.70
2022-12-20T10:27:23.056Z,4.90
2022-12-20T10:29:50.428Z,4.60
2022-12-20T10:32:20.359Z,4.73
2022-12-20T10:34:59.768Z,5.10
2022-12-20T10:37:26.614Z,5.20
2022-12-20T10:39:53.276Z,5.70
2022-12-20T10:42:39.158Z,5.50
2022-12-20T10:45:20.907Z,5.37
2022-12-20T10:47:51.558Z,5.00
2022-12-20T10:50:23.201Z,5.47
2022-12-20T10:53:11.134Z,4.87
2022-12-20T10:55:42.574Z,5.03
2022-12-20T10:58:31.249Z,5.30
2022-12-20T11:01:15.310Z,5.27
2022-12-20T11:04:02.997Z,4.03
2022-12-20T11:06:42.821Z,4.60
2022-12-20T11:09:24.531Z,4.60
2022-12-20T11:12:13.141Z,4.87
2022-12-20T11:14:42.022Z,5.03
2022-12-20T11:17:14.532Z,5.43
2022-12-20T11:19:47.575Z,4.30
2022-12-20T11:22:43.575Z,4.20
2022-12-20T11:25:36.640Z,5.57
2022-12-20T11:28:25.420Z,5.07
2022-12-20T11:31:07.975Z,5.13
2022-12-20T11:33:56.184Z,5.20
2022-12-20T11:36:36.502Z,5.23
2022-12-20T11:39:40.913Z,4.20
2022-12-20T11:42:24.898Z,4.40
2022-12-20T11:45:09.850Z,4.00
2022-12-20T11:48:06.669Z,4.10
2022-12-20T11:50:45.305Z,4.30
2022-12-20T11:53:34.123Z,4.93
2022-12-20T11:56:08.021Z,3.90
2022-12-20T11:59:02.257Z,4.17
2022-12-20T12:01:40.173Z,3.10
2022-12-20T12:04:10.028Z,3.23
2022-12-20T12:06:45.940Z,3.90
2022-12-20T12:09:16.428Z,4.10
2022-12-20T12:12:08.834Z,4.47
2022-12-20T12:14:58.529Z,3.67
2022-12-20T12:17:47.389Z,3.13
2022-12-20T12:21:03.527Z,3.70
2022-12-20T12:23:45.176Z,3.60
2022-12-20T12:26:33.072Z,2.90
2022-12-20T12:29:03.403Z,2.87
2022-12-20T12:31:55.757Z,3.70
2022-12-20T12:34:59.554Z,2.53
2022-12-20T12:37:44.824Z,3.27
2022-12-20T12:40:31.550Z,2.93
2022-12-20T12:43:25.944Z,2.50
2022-12-20T12:45:57.464Z,3.27
2022-12-20T12:48:45.220Z,3.57
2022-12-20T12:51:14.831Z,3.23
2022-12-20T12:53:50.461Z,2.97
2022-12-20T12:56:43.152Z,3.20
2022-12-20T12:59:13.351Z,4.03
2022-12-20T13:02:03.844Z,5.03
2022-12-20T13:05:01.601Z,5.47
2022-12-20T13:07:35.136Z,5.60
2022-12-20T13:10:29.481Z,5.60
2022-12-20T13:13:13.046Z,4.83
2022-12-20T13:15:42.675Z,4.33
2022-12-20T13:18:09.335Z,3.93
2022-12-20T13:20:36.757Z,4.40
2022-12-20T13:23:08.966Z,4.03
2022-12-20T13:25:41.539Z,4.03
2022-12-20T13:28:22.621Z,3.60
2022-12-20T13:31:12.087Z,4.37
2022-12-20T13:33:51.470Z,4.37
2022-12-20T13:36:37.236Z,4.60
2022-12-20T13:39:23.812Z,4.50
2022-12-20T13:42:32.973Z,5.10
2022-12-20T13:45:04.006Z,4.20
2022-12-20T13:47:40.520Z,4.17
2022-12-20T13:50:27.816Z,4.30
2022-12-20T13:52:54.860Z,5.07
2022-12-20T13:55:36.251Z,4.90
2022-12-20T13:58:34.356Z,4.60
2022-12-20T14:01:07.317Z,4.33
2022-12-20T14:03:41.540Z,4.43
2022-12-20T14:06:13.563Z,4.13
2022-12-20T14:08:46.947Z,4.20
2022-12-20T14:11:19.736Z,4.50
2022-12-20T14:14:04.645Z,4.57
2022-12-20T14:16:33.338Z,3.50
2022-12-20T14:19:05.987Z,4.63
2022-12-20T14:21:37.420Z,4.23
2022-12-20T14:24:04.734Z,4.40
2022-12-20T14:26:40.248Z,4.57
2022-12-20T14:29:12.345Z,5.10
2022-12-20T14:31:42.636Z,4.80
2022-12-20T14:34:10.490Z,5.13
2022-12-20T14:36:38.984Z,4.93
2022-12-20T14:39:28.884Z,5.13
2022-12-20T14:42:00.538Z,5.53
2022-12-20T14:44:29.962Z,3.80
2022-12-20T14:47:04.695Z,3.30
2022-12-20T14:49:32.750Z,4.50
2022-12-20T14:52:11.618Z,4.77
2022-12-20T14:57:36.573Z,4.63
2022-12-20T15:00:15.530Z,4.20
2022-12-20T15:02:46.332Z,4.20
2022-12-20T15:05:38.676Z,5.30
2022-12-20T15:08:17.147Z,5.50
2022-12-20T15:10:48.813Z,4.70
2022-12-20T15:13:17.145Z,5.30
2022-12-20T15:15:44.035Z,5.73
2022-12-20T15:18:15.995Z,9.20
2022-12-20T15:20:44.634Z,4.90
2022-12-20T15:23:20.675Z,7.00
2022-12-20T15:25:48.505Z,7.13
2022-12-20T15:28:21.005Z,10.20
2022-12-20T15:30:49.257Z,6.20
2022-12-20T15:33:28.972Z,19.83
2022-12-20T15:35:56.608Z,8.97
2022-12-20T15:38:54.552Z,13.90
2022-12-20T15:41:22.243Z,5.90
2022-12-20T15:43:52.113Z,6.37
2022-12-20T15:46:18.811Z,4.63
2022-12-20T15:48:45.563Z,3.97
2022-12-20T15:51:19.148Z,4.50
2022-12-20T15:53:45.826Z,4.83
2022-12-20T15:56:21.715Z,5.17
2022-12-20T15:58:49.653Z,4.90
2022-12-20T16:01:21.200Z,5.40
2022-12-20T16:03:47.951Z,3.83
2022-12-20T16:06:14.696Z,3.80
2022-12-20T16:08:41.781Z,4.40
2022-12-20T16:11:22.453Z,5.00
2022-12-20T16:13:49.306Z,4.40
2022-12-20T16:16:19.160Z,4.13
2022-12-20T16:18:45.956Z,4.63
2022-12-20T16:21:18.585Z,5.03
2022-12-20T16:23:46.477Z,4.80
2022-12-20T16:26:15.028Z,4.47
2022-12-20T16:28:42.704Z,5.03
2022-12-20T16:31:25.665Z,5.57
2022-12-20T16:33:53.055Z,4.57
2022-12-20T16:36:19.724Z,5.60
2022-12-20T16:38:46.374Z,5.37
2022-12-20T16:41:24.644Z,4.63
2022-12-20T16:43:51.346Z,5.03
2022-12-20T16:46:20.379Z,5.27
2022-12-20T16:48:47.799Z,4.80
2022-12-20T16:51:24.921Z,7.33
2022-12-20T16:56:40.762Z,5.80
2022-12-20T16:59:18.984Z,6.77
2022-12-20T17:01:47.264Z,5.90
2022-12-20T17:04:16.395Z,6.13
2022-12-20T17:06:43.939Z,6.50
2022-12-20T17:11:54.692Z,6.30
2022-12-20T17:14:21.471Z,6.57
2022-12-20T17:16:48.281Z,6.50
2022-12-20T17:19:14.967Z,6.43
2022-12-20T17:24:29.809Z,6.63
2022-12-20T17:26:56.510Z,6.03
2022-12-20T17:29:23.148Z,6.30
2022-12-20T17:31:49.875Z,6.27
2022-12-20T17:34:20.351Z,4.20
2022-12-20T17:36:48.849Z,5.80
2022-12-20T17:39:16.165Z,6.97
2022-12-20T17:41:44.117Z,6.33
2022-12-20T17:44:25.357Z,6.00
2022-12-20T17:46:52.739Z,6.60
2022-12-20T17:49:20.091Z,5.47
2022-12-20T17:51:47.130Z,6.70
2022-12-20T17:54:19.091Z,6.63
2022-12-20T17:56:46.507Z,6.10
2022-12-20T17:59:14.269Z,6.43
2022-12-20T18:01:43.022Z,6.80
2022-12-20T18:04:12.382Z,6.33
2022-12-20T18:06:41.273Z,6.27
2022-12-20T18:09:19.820Z,6.83
2022-12-20T18:11:47.364Z,6.30
2022-12-20T18:14:14.794Z,5.70
2022-12-20T18:16:41.732Z,6.90
2022-12-20T18:19:14.396Z,6.03
2022-12-20T18:21:41.721Z,7.33
2022-12-20T18:24:11.681Z,7.03
2022-12-20T18:26:38.446Z,7.60
2022-12-20T18:29:05.267Z,7.23
2022-12-20T18:31:33.851Z,6.90
2022-12-20T18:34:02.565Z,7.13
2022-12-20T18:36:34.879Z,8.30
2022-12-20T18:39:03.569Z,8.07
2022-12-20T18:41:31.660Z,7.40
2022-12-20T18:44:01.146Z,7.20
2022-12-20T18:46:28.527Z,7.10
2022-12-20T18:48:56.932Z,7.43
2022-12-20T18:51:26.383Z,7.57
2022-12-20T18:53:55.441Z,5.87
2022-12-20T18:56:29.453Z,7.60
2022-12-20T18:58:56.937Z,8.20
2022-12-20T19:01:27.698Z,8.53
2022-12-20T19:03:55.082Z,7.73
2022-12-20T19:06:22.344Z,8.87
2022-12-20T19:08:49.707Z,8.30
2022-12-20T19:11:19.725Z,9.30
2022-12-20T19:13:46.646Z,7.93
2022-12-20T19:16:22.585Z,9.23
2022-12-20T19:18:49.553Z,9.60
2022-12-20T19:21:36.603Z,8.70
2022-12-20T19:24:06.983Z,10.20
2022-12-20T19:26:36.355Z,9.93
2022-12-20T19:29:03.710Z,7.67
2022-12-20T19:31:32.265Z,10.60
2022-12-20T19:34:07.631Z,10.87
2022-12-20T19:36:46.785Z,10.70
2022-12-20T19:39:20.385Z,9.97
2022-12-20T19:42:15.662Z,12.33
2022-12-20T19:44:34.757Z,12.40
2022-12-20T19:47:07.502Z,12.20
2022-12-20T19:49:35.751Z,10.90
2022-12-20T19:52:03.177Z,12.50
2022-12-20T19:54:30.018Z,13.80
2022-12-20T19:56:57.470Z,12.50
2022-12-20T19:59:24.835Z,12.80
2022-12-20T20:01:51.502Z,12.60
2022-12-20T20:04:18.232Z,13.37
2022-12-20T20:06:45.005Z,13.30
2022-12-20T20:09:11.773Z,13.00
2022-12-20T20:11:38.421Z,12.90
2022-12-20T20:14:07.018Z,12.90
2022-12-20T20:16:33.699Z,12.77
2022-12-20T20:19:00.443Z,13.47
2022-12-20T20:21:27.180Z,14.70
2022-12-20T20:23:54.675Z,13.50
2022-12-20T20:26:24.607Z,13.33
2022-12-20T20:28:52.068Z,14.47
2022-12-20T20:31:20.386Z,14.53
2022-12-20T20:33:47.484Z,13.07
2022-12-20T20:36:16.699Z,13.70
2022-12-20T20:38:43.384Z,15.47
2022-12-20T20:41:10.571Z,14.30
2022-12-20T20:43:38.089Z,15.13
2022-12-20T20:46:07.063Z,16.20
2022-12-20T20:48:34.225Z,15.83
2022-12-20T20:51:00.933Z,15.67
2022-12-20T20:53:33.165Z,15.97
2022-12-20T20:56:05.186Z,13.60
2022-12-20T20:58:32.808Z,15.13
2022-12-20T21:01:02.485Z,15.60
2022-12-20T21:03:30.816Z,15.93
2022-12-20T21:08:44.731Z,16.53
2022-12-20T21:11:12.703Z,15.73
2022-12-20T21:13:39.616Z,15.80
2022-12-20T21:16:07.249Z,15.60
2022-12-20T21:18:33.998Z,16.37
2022-12-20T21:21:10.447Z,14.97
2022-12-20T21:23:38.174Z,14.47
2022-12-20T21:26:05.026Z,16.97
2022-12-20T21:28:31.944Z,15.37
2022-12-20T21:31:00.403Z,17.00
2022-12-20T21:33:27.934Z,16.60
2022-12-20T21:36:07.157Z,14.47
2022-12-20T21:38:34.374Z,17.20
2022-12-20T21:41:10.864Z,17.43
2022-12-20T21:43:37.514Z,15.27
2022-12-20T21:46:04.863Z,15.67
2022-12-20T21:48:31.802Z,15.40
2022-12-20T21:51:03.557Z,15.73
2022-12-20T21:53:31.378Z,16.80
2022-12-20T21:55:59.751Z,15.37
2022-12-20T21:58:27.983Z,15.70
2022-12-20T22:00:56.159Z,15.23
2022-12-20T22:03:23.926Z,14.53
2022-12-20T22:05:53.477Z,16.30
2022-12-20T22:08:21.008Z,16.00
2022-12-20T22:10:49.699Z,16.13
2022-12-20T22:13:16.477Z,12.77
2022-12-20T22:15:43.261Z,13.97
2022-12-20T22:18:10.059Z,14.63
2022-12-20T22:20:36.959Z,15.53
2022-12-20T22:23:04.264Z,15.00
2022-12-20T22:25:31.642Z,15.50
2022-12-20T22:27:58.467Z,14.83
2022-12-20T22:30:25.150Z,15.20
2022-12-20T22:32:51.813Z,13.40
2022-12-20T22:35:22.664Z,14.77
2022-12-20T22:37:51.711Z,13.77
2022-12-20T22:40:19.096Z,14.40
2022-12-20T22:42:45.814Z,16.23
2022-12-20T22:45:12.472Z,15.53
2022-12-20T22:47:41.053Z,14.57
2022-12-20T22:50:08.726Z,14.77
2022-12-20T22:52:35.355Z,14.67
2022-12-20T22:55:02.971Z,15.07
2022-12-20T22:57:29.647Z,13.23
2022-12-20T22:59:58.684Z,13.70
2022-12-20T23:02:26.325Z,15.10
2022-12-20T23:04:53.637Z,14.60
2022-12-20T23:07:21.244Z,15.67
2022-12-20T23:09:48.660Z,16.07
2022-12-20T23:12:34.323Z,16.83
2022-12-20T23:15:19.675Z,15.50
2022-12-20T23:17:46.284Z,14.40
2022-12-20T23:20:31.534Z,16.63
2022-12-20T23:22:58.220Z,15.50
2022-12-20T23:25:25.563Z,16.67
2022-12-20T23:27:52.948Z,16.10
2022-12-20T23:30:22.702Z,16.67
2022-12-20T23:32:49.581Z,15.10
2022-12-20T23:35:18.289Z,14.67
2022-12-20T23:37:45.993Z,13.70
2022-12-20T23:40:13.952Z,14.00
2022-12-20T23:42:40.613Z,14.03
2022-12-20T23:45:07.827Z,14.07
2022-12-20T23:47:34.646Z,13.87
2022-12-20T23:50:01.263Z,13.20
2022-12-20T23:52:28.203Z,13.30
2022-12-20T23:54:54.811Z,13.40
2022-12-20T23:57:21.474Z,10.93
2022-12-20T23:59:48.183Z,12.70
